sensor_id;sensor_type;location;lat;lon;timestamp;P1;durP1;ratioP1;P2;durP2;ratioP2
11016;SDS011;54687;50.800;6.772;2023-02-19T00:00:59;1.67;;;1.58;;
11016;SDS011;54687;50.800;6.772;2023-02-19T00:03:27;3.33;;;1.98;;
11016;SDS011;54687;50.800;6.772;2023-02-19T00:05:54;2.08;;;1.98;;
11016;SDS011;54687;50.800;6.772;2023-02-19T00:08:22;2.17;;;1.98;;
11016;SDS011;54687;50.800;6.772;2023-02-19T00:10:48;1.95;;;1.85;;
11016;SDS011;54687;50.800;6.772;2023-02-19T00:13:15;1.90;;;1.80;;
11016;SDS011;54687;50.800;6.772;2023-02-19T00:15:43;1.90;;;1.80;;
11016;SDS011;54687;50.800;6.772;2023-02-19T00:18:09;2.42;;;1.73;;
11016;SDS011;54687;50.800;6.772;2023-02-19T00:20:36;2.10;;;2.00;;
11016;SDS011;54687;50.800;6.772;2023-02-19T00:23:02;2.10;;;2.00;;
11016;SDS011;54687;50.800;6.772;2023-02-19T00:25:30;2.20;;;2.10;;
11016;SDS011;54687;50.800;6.772;2023-02-19T00:27:57;2.30;;;2.10;;
11016;SDS011;54687;50.800;6.772;2023-02-19T00:30:23;2.50;;;2.30;;
11016;SDS011;54687;50.800;6.772;2023-02-19T00:32:50;2.65;;;2.45;;
11016;SDS011;54687;50.800;6.772;2023-02-19T00:35:16;3.42;;;2.33;;
11016;SDS011;54687;50.800;6.772;2023-02-19T00:37:43;2.95;;;2.75;;
11016;SDS011;54687;50.800;6.772;2023-02-19T00:40:09;3.60;;;3.10;;
11016;SDS011;54687;50.800;6.772;2023-02-19T00:42:37;3.35;;;3.05;;
11016;SDS011;54687;50.800;6.772;2023-02-19T00:45:04;3.78;;;3.50;;
11016;SDS011;54687;50.800;6.772;2023-02-19T00:47:31;4.82;;;3.75;;
11016;SDS011;54687;50.800;6.772;2023-02-19T00:49:57;4.70;;;4.30;;
11016;SDS011;54687;50.800;6.772;2023-02-19T00:52:24;4.20;;;3.90;;
11016;SDS011;54687;50.800;6.772;2023-02-19T00:54:51;4.68;;;4.32;;
11016;SDS011;54687;50.800;6.772;2023-02-19T00:57:17;4.72;;;4.32;;
11016;SDS011;54687;50.800;6.772;2023-02-19T00:59:45;4.25;;;3.92;;
11016;SDS011;54687;50.800;6.772;2023-02-19T01:02:12;5.22;;;4.68;;
11016;SDS011;54687;50.800;6.772;2023-02-19T01:04:38;4.70;;;4.40;;
11016;SDS011;54687;50.800;6.772;2023-02-19T01:07:05;4.78;;;4.38;;
11016;SDS011;54687;50.800;6.772;2023-02-19T01:09:32;4.55;;;4.25;;
11016;SDS011;54687;50.800;6.772;2023-02-19T01:11:58;5.13;;;4.57;;
11016;SDS011;54687;50.800;6.772;2023-02-19T01:14:25;4.35;;;3.78;;
11016;SDS011;54687;50.800;6.772;2023-02-19T01:16:53;4.03;;;3.72;;
11016;SDS011;54687;50.800;6.772;2023-02-19T01:19:20;7.95;;;3.72;;
11016;SDS011;54687;50.800;6.772;2023-02-19T01:21:46;3.58;;;3.28;;
11016;SDS011;54687;50.800;6.772;2023-02-19T01:24:13;3.25;;;3.05;;
11016;SDS011;54687;50.800;6.772;2023-02-19T01:26:40;2.88;;;2.67;;
11016;SDS011;54687;50.800;6.772;2023-02-19T01:29:07;3.20;;;2.90;;
11016;SDS011;54687;50.800;6.772;2023-02-19T01:31:35;2.70;;;2.50;;
11016;SDS011;54687;50.800;6.772;2023-02-19T01:34:03;2.67;;;2.47;;
11016;SDS011;54687;50.800;6.772;2023-02-19T01:36:31;2.80;;;2.60;;
11016;SDS011;54687;50.800;6.772;2023-02-19T01:38:59;3.08;;;2.88;;
11016;SDS011;54687;50.800;6.772;2023-02-19T01:41:28;2.90;;;2.70;;
11016;SDS011;54687;50.800;6.772;2023-02-19T01:43:59;2.95;;;2.35;;
11016;SDS011;54687;50.800;6.772;2023-02-19T01:46:27;2.40;;;2.30;;
11016;SDS011;54687;50.800;6.772;2023-02-19T01:48:54;2.13;;;2.03;;
11016;SDS011;54687;50.800;6.772;2023-02-19T01:51:24;2.60;;;2.40;;
11016;SDS011;54687;50.800;6.772;2023-02-19T01:53:52;3.08;;;2.50;;
11016;SDS011;54687;50.800;6.772;2023-02-19T01:56:22;2.67;;;2.47;;
11016;SDS011;54687;50.800;6.772;2023-02-19T01:58:50;2.97;;;2.78;;
11016;SDS011;54687;50.800;6.772;2023-02-19T02:01:18;2.63;;;2.42;;
11016;SDS011;54687;50.800;6.772;2023-02-19T02:03:46;2.78;;;2.58;;
11016;SDS011;54687;50.800;6.772;2023-02-19T02:06:15;2.95;;;2.75;;
11016;SDS011;54687;50.800;6.772;2023-02-19T02:08:48;2.85;;;2.65;;
11016;SDS011;54687;50.800;6.772;2023-02-19T02:11:34;3.03;;;2.72;;
11016;SDS011;54687;50.800;6.772;2023-02-19T02:14:02;3.38;;;2.90;;
11016;SDS011;54687;50.800;6.772;2023-02-19T02:16:31;3.25;;;2.95;;
11016;SDS011;54687;50.800;6.772;2023-02-19T02:19:04;3.25;;;2.97;;
11016;SDS011;54687;50.800;6.772;2023-02-19T02:21:54;3.13;;;2.92;;
11016;SDS011;54687;50.800;6.772;2023-02-19T02:27:37;3.08;;;2.60;;
11016;SDS011;54687;50.800;6.772;2023-02-19T02:30:11;3.25;;;2.95;;
11016;SDS011;54687;50.800;6.772;2023-02-19T02:33:01;2.83;;;2.63;;
11016;SDS011;54687;50.800;6.772;2023-02-19T02:35:38;2.70;;;2.50;;
11016;SDS011;54687;50.800;6.772;2023-02-19T02:38:09;3.05;;;2.75;;
11016;SDS011;54687;50.800;6.772;2023-02-19T02:40:38;4.03;;;2.92;;
11016;SDS011;54687;50.800;6.772;2023-02-19T02:43:08;3.00;;;2.80;;
11016;SDS011;54687;50.800;6.772;2023-02-19T02:45:36;4.18;;;3.50;;
11016;SDS011;54687;50.800;6.772;2023-02-19T02:50:53;4.90;;;4.28;;
11016;SDS011;54687;50.800;6.772;2023-02-19T02:53:25;4.88;;;4.20;;
11016;SDS011;54687;50.800;6.772;2023-02-19T02:56:13;5.22;;;4.75;;
11016;SDS011;54687;50.800;6.772;2023-02-19T02:58:42;5.03;;;4.63;;
11016;SDS011;54687;50.800;6.772;2023-02-19T03:01:13;5.05;;;4.65;;
11016;SDS011;54687;50.800;6.772;2023-02-19T03:04:04;7.85;;;5.30;;
11016;SDS011;54687;50.800;6.772;2023-02-19T03:06:34;5.97;;;5.47;;
11016;SDS011;54687;50.800;6.772;2023-02-19T03:09:05;6.80;;;6.20;;
11016;SDS011;54687;50.800;6.772;2023-02-19T03:11:36;6.70;;;5.95;;
11016;SDS011;54687;50.800;6.772;2023-02-19T03:14:24;7.63;;;5.70;;
11016;SDS011;54687;50.800;6.772;2023-02-19T03:17:15;7.55;;;6.03;;
11016;SDS011;54687;50.800;6.772;2023-02-19T03:20:04;7.93;;;6.57;;
11016;SDS011;54687;50.800;6.772;2023-02-19T03:22:37;8.63;;;6.80;;
11016;SDS011;54687;50.800;6.772;2023-02-19T03:25:08;7.13;;;5.75;;
11016;SDS011;54687;50.800;6.772;2023-02-19T03:27:55;7.20;;;6.05;;
11016;SDS011;54687;50.800;6.772;2023-02-19T03:30:24;7.72;;;6.88;;
11016;SDS011;54687;50.800;6.772;2023-02-19T03:32:57;8.15;;;6.75;;
11016;SDS011;54687;50.800;6.772;2023-02-19T03:35:28;7.28;;;6.57;;
11016;SDS011;54687;50.800;6.772;2023-02-19T03:37:59;7.93;;;6.38;;
11016;SDS011;54687;50.800;6.772;2023-02-19T03:40:29;7.93;;;6.20;;
11016;SDS011;54687;50.800;6.772;2023-02-19T03:43:05;8.02;;;7.10;;
11016;SDS011;54687;50.800;6.772;2023-02-19T03:45:42;8.32;;;7.03;;
11016;SDS011;54687;50.800;6.772;2023-02-19T03:48:19;9.10;;;7.63;;
11016;SDS011;54687;50.800;6.772;2023-02-19T03:50:51;8.85;;;7.13;;
11016;SDS011;54687;50.800;6.772;2023-02-19T03:53:29;7.90;;;6.40;;
11016;SDS011;54687;50.800;6.772;2023-02-19T03:56:03;7.32;;;6.50;;
11016;SDS011;54687;50.800;6.772;2023-02-19T03:58:37;7.25;;;6.30;;
11016;SDS011;54687;50.800;6.772;2023-02-19T04:01:11;7.80;;;6.32;;
11016;SDS011;54687;50.800;6.772;2023-02-19T04:03:44;9.30;;;6.75;;
11016;SDS011;54687;50.800;6.772;2023-02-19T04:06:15;9.10;;;6.32;;
11016;SDS011;54687;50.800;6.772;2023-02-19T04:08:46;10.77;;;6.85;;
11016;SDS011;54687;50.800;6.772;2023-02-19T04:11:16;8.02;;;6.40;;
11016;SDS011;54687;50.800;6.772;2023-02-19T04:13:46;9.57;;;7.53;;
11016;SDS011;54687;50.800;6.772;2023-02-19T04:16:20;9.98;;;7.53;;
11016;SDS011;54687;50.800;6.772;2023-02-19T04:18:54;9.77;;;7.18;;
11016;SDS011;54687;50.800;6.772;2023-02-19T04:21:25;10.65;;;7.05;;
11016;SDS011;54687;50.800;6.772;2023-02-19T04:23:54;10.25;;;6.88;;
11016;SDS011;54687;50.800;6.772;2023-02-19T04:26:26;8.90;;;7.03;;
11016;SDS011;54687;50.800;6.772;2023-02-19T04:28:53;8.77;;;7.32;;
11016;SDS011;54687;50.800;6.772;2023-02-19T04:31:20;9.68;;;6.50;;
11016;SDS011;54687;50.800;6.772;2023-02-19T04:33:48;10.00;;;6.95;;
11016;SDS011;54687;50.800;6.772;2023-02-19T04:36:16;7.95;;;7.03;;
11016;SDS011;54687;50.800;6.772;2023-02-19T04:38:42;8.73;;;6.47;;
11016;SDS011;54687;50.800;6.772;2023-02-19T04:41:09;10.75;;;7.10;;
11016;SDS011;54687;50.800;6.772;2023-02-19T04:43:36;8.30;;;7.18;;
11016;SDS011;54687;50.800;6.772;2023-02-19T04:46:02;8.35;;;6.85;;
11016;SDS011;54687;50.800;6.772;2023-02-19T04:48:29;8.68;;;7.30;;
11016;SDS011;54687;50.800;6.772;2023-02-19T04:50:55;10.13;;;7.32;;
11016;SDS011;54687;50.800;6.772;2023-02-19T04:53:23;7.68;;;6.85;;
11016;SDS011;54687;50.800;6.772;2023-02-19T04:55:50;10.45;;;7.18;;
11016;SDS011;54687;50.800;6.772;2023-02-19T04:58:18;8.00;;;7.15;;
11016;SDS011;54687;50.800;6.772;2023-02-19T05:00:46;10.48;;;7.65;;
11016;SDS011;54687;50.800;6.772;2023-02-19T05:03:16;11.45;;;7.85;;
11016;SDS011;54687;50.800;6.772;2023-02-19T05:05:43;9.65;;;7.45;;
11016;SDS011;54687;50.800;6.772;2023-02-19T05:08:09;13.52;;;7.85;;
11016;SDS011;54687;50.800;6.772;2023-02-19T05:10:37;10.27;;;7.43;;
11016;SDS011;54687;50.800;6.772;2023-02-19T05:13:04;10.02;;;7.25;;
11016;SDS011;54687;50.800;6.772;2023-02-19T05:15:31;10.65;;;7.75;;
11016;SDS011;54687;50.800;6.772;2023-02-19T05:17:57;9.63;;;7.40;;
11016;SDS011;54687;50.800;6.772;2023-02-19T05:20:24;10.18;;;7.20;;
11016;SDS011;54687;50.800;6.772;2023-02-19T05:22:50;10.73;;;7.60;;
11016;SDS011;54687;50.800;6.772;2023-02-19T05:25:17;9.57;;;7.90;;
11016;SDS011;54687;50.800;6.772;2023-02-19T05:27:45;10.05;;;8.05;;
11016;SDS011;54687;50.800;6.772;2023-02-19T05:30:11;13.77;;;8.05;;
11016;SDS011;54687;50.800;6.772;2023-02-19T05:32:38;9.75;;;7.75;;
11016;SDS011;54687;50.800;6.772;2023-02-19T05:35:05;13.38;;;8.52;;
11016;SDS011;54687;50.800;6.772;2023-02-19T05:37:31;10.65;;;8.48;;
11016;SDS011;54687;50.800;6.772;2023-02-19T05:39:58;13.02;;;9.15;;
11016;SDS011;54687;50.800;6.772;2023-02-19T05:42:25;10.93;;;8.05;;
11016;SDS011;54687;50.800;6.772;2023-02-19T05:44:53;13.52;;;8.00;;
11016;SDS011;54687;50.800;6.772;2023-02-19T05:47:19;10.95;;;8.73;;
11016;SDS011;54687;50.800;6.772;2023-02-19T05:49:46;14.57;;;9.75;;
11016;SDS011;54687;50.800;6.772;2023-02-19T05:52:12;12.70;;;8.52;;
11016;SDS011;54687;50.800;6.772;2023-02-19T05:54:39;15.02;;;9.02;;
11016;SDS011;54687;50.800;6.772;2023-02-19T05:57:05;12.93;;;7.90;;
11016;SDS011;54687;50.800;6.772;2023-02-19T05:59:32;12.40;;;8.73;;
11016;SDS011;54687;50.800;6.772;2023-02-19T06:02:00;10.15;;;8.90;;
11016;SDS011;54687;50.800;6.772;2023-02-19T06:04:26;13.25;;;9.85;;
11016;SDS011;54687;50.800;6.772;2023-02-19T06:06:53;14.65;;;9.57;;
11016;SDS011;54687;50.800;6.772;2023-02-19T06:09:19;13.93;;;10.07;;
11016;SDS011;54687;50.800;6.772;2023-02-19T06:11:46;13.07;;;9.50;;
11016;SDS011;54687;50.800;6.772;2023-02-19T06:14:13;12.23;;;8.98;;
11016;SDS011;54687;50.800;6.772;2023-02-19T06:16:39;11.07;;;9.50;;
11016;SDS011;54687;50.800;6.772;2023-02-19T06:19:08;13.13;;;9.20;;
11016;SDS011;54687;50.800;6.772;2023-02-19T06:21:35;13.23;;;8.13;;
11016;SDS011;54687;50.800;6.772;2023-02-19T06:24:04;10.50;;;8.75;;
11016;SDS011;54687;50.800;6.772;2023-02-19T06:26:32;12.77;;;8.70;;
11016;SDS011;54687;50.800;6.772;2023-02-19T06:28:58;11.25;;;7.75;;
11016;SDS011;54687;50.800;6.772;2023-02-19T06:31:25;9.65;;;7.60;;
11016;SDS011;54687;50.800;6.772;2023-02-19T06:33:52;11.88;;;7.75;;
11016;SDS011;54687;50.800;6.772;2023-02-19T06:36:20;9.68;;;8.15;;
11016;SDS011;54687;50.800;6.772;2023-02-19T06:38:48;13.02;;;8.23;;
11016;SDS011;54687;50.800;6.772;2023-02-19T06:41:15;14.10;;;9.35;;
11016;SDS011;54687;50.800;6.772;2023-02-19T06:43:42;19.60;;;10.32;;
11016;SDS011;54687;50.800;6.772;2023-02-19T06:46:09;14.73;;;8.60;;
11016;SDS011;54687;50.800;6.772;2023-02-19T06:48:38;12.55;;;8.57;;
11016;SDS011;54687;50.800;6.772;2023-02-19T06:51:05;11.25;;;7.95;;
11016;SDS011;54687;50.800;6.772;2023-02-19T06:53:34;15.90;;;8.13;;
11016;SDS011;54687;50.800;6.772;2023-02-19T06:56:01;7.57;;;6.72;;
11016;SDS011;54687;50.800;6.772;2023-02-19T06:58:29;14.82;;;7.65;;
11016;SDS011;54687;50.800;6.772;2023-02-19T07:00:56;13.63;;;7.45;;
11016;SDS011;54687;50.800;6.772;2023-02-19T07:03:23;11.75;;;8.40;;
11016;SDS011;54687;50.800;6.772;2023-02-19T07:05:50;15.13;;;10.15;;
11016;SDS011;54687;50.800;6.772;2023-02-19T07:08:17;13.43;;;9.63;;
11016;SDS011;54687;50.800;6.772;2023-02-19T07:10:45;13.45;;;9.20;;
11016;SDS011;54687;50.800;6.772;2023-02-19T07:13:18;11.90;;;8.40;;
11016;SDS011;54687;50.800;6.772;2023-02-19T07:15:45;14.57;;;9.10;;
11016;SDS011;54687;50.800;6.772;2023-02-19T07:18:11;10.93;;;8.18;;
11016;SDS011;54687;50.800;6.772;2023-02-19T07:20:38;12.15;;;8.98;;
11016;SDS011;54687;50.800;6.772;2023-02-19T07:23:04;13.75;;;9.25;;
11016;SDS011;54687;50.800;6.772;2023-02-19T07:25:31;18.13;;;9.48;;
11016;SDS011;54687;50.800;6.772;2023-02-19T07:27:59;13.52;;;8.50;;
11016;SDS011;54687;50.800;6.772;2023-02-19T07:30:25;14.27;;;8.80;;
11016;SDS011;54687;50.800;6.772;2023-02-19T07:32:52;14.68;;;9.18;;
11016;SDS011;54687;50.800;6.772;2023-02-19T07:35:18;13.52;;;9.43;;
11016;SDS011;54687;50.800;6.772;2023-02-19T07:37:45;16.02;;;8.07;;
11016;SDS011;54687;50.800;6.772;2023-02-19T07:40:12;15.07;;;9.00;;
11016;SDS011;54687;50.800;6.772;2023-02-19T07:42:38;15.98;;;9.25;;
11016;SDS011;54687;50.800;6.772;2023-02-19T07:45:06;16.85;;;9.88;;
11016;SDS011;54687;50.800;6.772;2023-02-19T07:47:33;14.23;;;9.27;;
11016;SDS011;54687;50.800;6.772;2023-02-19T07:50:00;13.68;;;9.27;;
11016;SDS011;54687;50.800;6.772;2023-02-19T07:52:26;15.27;;;9.65;;
11016;SDS011;54687;50.800;6.772;2023-02-19T07:54:53;13.40;;;8.60;;
11016;SDS011;54687;50.800;6.772;2023-02-19T07:57:20;16.35;;;8.98;;
11016;SDS011;54687;50.800;6.772;2023-02-19T07:59:46;15.40;;;9.18;;
11016;SDS011;54687;50.800;6.772;2023-02-19T08:02:16;14.55;;;9.13;;
11016;SDS011;54687;50.800;6.772;2023-02-19T08:05:01;17.20;;;9.38;;
11016;SDS011;54687;50.800;6.772;2023-02-19T08:07:31;14.95;;;9.82;;
11016;SDS011;54687;50.800;6.772;2023-02-19T08:09:58;15.18;;;9.70;;
11016;SDS011;54687;50.800;6.772;2023-02-19T08:12:42;13.00;;;9.85;;
11016;SDS011;54687;50.800;6.772;2023-02-19T08:15:26;14.80;;;10.90;;
11016;SDS011;54687;50.800;6.772;2023-02-19T08:17:54;12.57;;;9.27;;
11016;SDS011;54687;50.800;6.772;2023-02-19T08:20:21;17.02;;;10.48;;
11016;SDS011;54687;50.800;6.772;2023-02-19T08:22:47;15.13;;;10.23;;
11016;SDS011;54687;50.800;6.772;2023-02-19T08:25:14;16.60;;;9.43;;
11016;SDS011;54687;50.800;6.772;2023-02-19T08:27:40;16.63;;;10.10;;
11016;SDS011;54687;50.800;6.772;2023-02-19T08:30:07;13.88;;;9.38;;
11016;SDS011;54687;50.800;6.772;2023-02-19T08:32:34;20.08;;;9.77;;
11016;SDS011;54687;50.800;6.772;2023-02-19T08:35:02;15.18;;;9.75;;
11016;SDS011;54687;50.800;6.772;2023-02-19T08:37:29;16.17;;;9.40;;
11016;SDS011;54687;50.800;6.772;2023-02-19T08:39:56;13.52;;;9.15;;
11016;SDS011;54687;50.800;6.772;2023-02-19T08:42:23;14.93;;;9.10;;
11016;SDS011;54687;50.800;6.772;2023-02-19T08:44:49;15.15;;;8.48;;
11016;SDS011;54687;50.800;6.772;2023-02-19T08:47:16;12.98;;;8.65;;
11016;SDS011;54687;50.800;6.772;2023-02-19T08:49:42;14.65;;;8.13;;
11016;SDS011;54687;50.800;6.772;2023-02-19T08:52:10;16.30;;;9.25;;
11016;SDS011;54687;50.800;6.772;2023-02-19T08:54:37;13.38;;;7.82;;
11016;SDS011;54687;50.800;6.772;2023-02-19T08:57:04;12.93;;;7.35;;
11016;SDS011;54687;50.800;6.772;2023-02-19T08:59:30;12.80;;;7.60;;
11016;SDS011;54687;50.800;6.772;2023-02-19T09:01:57;12.82;;;7.57;;
11016;SDS011;54687;50.800;6.772;2023-02-19T09:04:24;12.13;;;6.85;;
11016;SDS011;54687;50.800;6.772;2023-02-19T09:06:51;15.52;;;7.55;;
11016;SDS011;54687;50.800;6.772;2023-02-19T09:09:19;10.73;;;7.28;;
11016;SDS011;54687;50.800;6.772;2023-02-19T09:11:46;10.55;;;6.90;;
11016;SDS011;54687;50.800;6.772;2023-02-19T09:14:12;10.70;;;7.13;;
11016;SDS011;54687;50.800;6.772;2023-02-19T09:16:39;13.13;;;7.35;;
11016;SDS011;54687;50.800;6.772;2023-02-19T09:19:06;14.05;;;8.07;;
11016;SDS011;54687;50.800;6.772;2023-02-19T09:21:33;11.27;;;7.38;;
11016;SDS011;54687;50.800;6.772;2023-02-19T09:23:59;11.70;;;7.03;;
11016;SDS011;54687;50.800;6.772;2023-02-19T09:26:27;11.00;;;6.93;;
11016;SDS011;54687;50.800;6.772;2023-02-19T09:28:54;13.82;;;7.10;;
11016;SDS011;54687;50.800;6.772;2023-02-19T09:31:21;14.82;;;7.85;;
11016;SDS011;54687;50.800;6.772;2023-02-19T09:33:47;12.30;;;7.50;;
11016;SDS011;54687;50.800;6.772;2023-02-19T09:36:15;11.93;;;7.05;;
11016;SDS011;54687;50.800;6.772;2023-02-19T09:38:42;12.85;;;7.03;;
11016;SDS011;54687;50.800;6.772;2023-02-19T09:41:13;12.73;;;7.35;;
11016;SDS011;54687;50.800;6.772;2023-02-19T09:43:44;10.82;;;7.28;;
11016;SDS011;54687;50.800;6.772;2023-02-19T09:46:16;11.73;;;8.20;;
11016;SDS011;54687;50.800;6.772;2023-02-19T09:48:49;11.35;;;7.57;;
11016;SDS011;54687;50.800;6.772;2023-02-19T09:51:17;14.80;;;8.27;;
11016;SDS011;54687;50.800;6.772;2023-02-19T09:53:45;14.88;;;8.27;;
11016;SDS011;54687;50.800;6.772;2023-02-19T09:56:15;11.05;;;7.30;;
11016;SDS011;54687;50.800;6.772;2023-02-19T09:58:44;14.40;;;7.40;;
11016;SDS011;54687;50.800;6.772;2023-02-19T10:01:14;10.95;;;7.10;;
11016;SDS011;54687;50.800;6.772;2023-02-19T10:03:42;7.70;;;6.70;;
11016;SDS011;54687;50.800;6.772;2023-02-19T10:06:13;13.57;;;6.93;;
11016;SDS011;54687;50.800;6.772;2023-02-19T10:08:45;9.00;;;6.22;;
11016;SDS011;54687;50.800;6.772;2023-02-19T10:11:14;11.02;;;6.30;;
11016;SDS011;54687;50.800;6.772;2023-02-19T10:13:41;10.75;;;6.28;;
11016;SDS011;54687;50.800;6.772;2023-02-19T10:16:12;11.52;;;6.72;;
11016;SDS011;54687;50.800;6.772;2023-02-19T10:18:43;7.35;;;5.93;;
11016;SDS011;54687;50.800;6.772;2023-02-19T10:21:13;10.30;;;6.15;;
11016;SDS011;54687;50.800;6.772;2023-02-19T10:23:43;8.70;;;5.53;;
11016;SDS011;54687;50.800;6.772;2023-02-19T10:26:12;11.05;;;5.78;;
11016;SDS011;54687;50.800;6.772;2023-02-19T10:28:38;9.40;;;5.65;;
11016;SDS011;54687;50.800;6.772;2023-02-19T10:31:13;7.97;;;5.53;;
11016;SDS011;54687;50.800;6.772;2023-02-19T10:33:47;8.85;;;4.32;;
11016;SDS011;54687;50.800;6.772;2023-02-19T10:36:18;5.43;;;4.32;;
11016;SDS011;54687;50.800;6.772;2023-02-19T10:38:50;6.53;;;4.32;;
11016;SDS011;54687;50.800;6.772;2023-02-19T10:41:18;8.30;;;4.90;;
11016;SDS011;54687;50.800;6.772;2023-02-19T10:43:49;7.35;;;4.35;;
11016;SDS011;54687;50.800;6.772;2023-02-19T10:46:22;7.80;;;5.25;;
11016;SDS011;54687;50.800;6.772;2023-02-19T10:48:51;7.10;;;4.70;;
11016;SDS011;54687;50.800;6.772;2023-02-19T10:51:20;6.85;;;5.13;;
11016;SDS011;54687;50.800;6.772;2023-02-19T10:54:01;6.85;;;5.20;;
11016;SDS011;54687;50.800;6.772;2023-02-19T10:56:30;9.85;;;5.32;;
11016;SDS011;54687;50.800;6.772;2023-02-19T10:59:12;9.10;;;5.18;;
11016;SDS011;54687;50.800;6.772;2023-02-19T11:01:53;9.38;;;5.30;;
11016;SDS011;54687;50.800;6.772;2023-02-19T11:04:21;6.53;;;5.20;;
11016;SDS011;54687;50.800;6.772;2023-02-19T11:06:48;6.95;;;4.80;;
11016;SDS011;54687;50.800;6.772;2023-02-19T11:09:21;10.18;;;5.35;;
11016;SDS011;54687;50.800;6.772;2023-02-19T11:11:52;8.48;;;5.43;;
11016;SDS011;54687;50.800;6.772;2023-02-19T11:14:20;6.72;;;5.30;;
11016;SDS011;54687;50.800;6.772;2023-02-19T11:16:49;6.32;;;4.82;;
11016;SDS011;54687;50.800;6.772;2023-02-19T11:22:17;6.13;;;4.90;;
11016;SDS011;54687;50.800;6.772;2023-02-19T11:24:54;9.00;;;5.05;;
11016;SDS011;54687;50.800;6.772;2023-02-19T11:27:24;7.70;;;4.82;;
11016;SDS011;54687;50.800;6.772;2023-02-19T11:29:50;9.38;;;5.18;;
11016;SDS011;54687;50.800;6.772;2023-02-19T11:32:24;6.68;;;5.25;;
11016;SDS011;54687;50.800;6.772;2023-02-19T11:37:54;12.10;;;5.32;;
11016;SDS011;54687;50.800;6.772;2023-02-19T11:40:23;10.27;;;5.82;;
11016;SDS011;54687;50.800;6.772;2023-02-19T11:43:04;8.40;;;4.93;;
11016;SDS011;54687;50.800;6.772;2023-02-19T11:45:39;6.97;;;5.10;;
11016;SDS011;54687;50.800;6.772;2023-02-19T11:48:19;7.93;;;5.45;;
11016;SDS011;54687;50.800;6.772;2023-02-19T11:51:00;6.90;;;5.55;;
11016;SDS011;54687;50.800;6.772;2023-02-19T11:53:39;7.40;;;5.47;;
11016;SDS011;54687;50.800;6.772;2023-02-19T11:56:15;5.68;;;4.90;;
11016;SDS011;54687;50.800;6.772;2023-02-19T11:58:49;10.90;;;6.43;;
11016;SDS011;54687;50.800;6.772;2023-02-19T12:01:22;9.93;;;6.63;;
11016;SDS011;54687;50.800;6.772;2023-02-19T12:04:09;9.52;;;6.28;;
11016;SDS011;54687;50.800;6.772;2023-02-19T12:07:00;7.30;;;6.03;;
11016;SDS011;54687;50.800;6.772;2023-02-19T12:09:39;8.55;;;6.38;;
11016;SDS011;54687;50.800;6.772;2023-02-19T12:12:21;7.13;;;5.43;;
11016;SDS011;54687;50.800;6.772;2023-02-19T12:15:04;8.85;;;5.75;;
11016;SDS011;54687;50.800;6.772;2023-02-19T12:17:58;6.72;;;5.10;;
11016;SDS011;54687;50.800;6.772;2023-02-19T12:20:50;7.95;;;6.20;;
11016;SDS011;54687;50.800;6.772;2023-02-19T12:23:35;7.18;;;5.70;;
11016;SDS011;54687;50.800;6.772;2023-02-19T12:26:16;5.82;;;4.63;;
11016;SDS011;54687;50.800;6.772;2023-02-19T12:28:56;5.63;;;4.97;;
11016;SDS011;54687;50.800;6.772;2023-02-19T12:31:49;5.63;;;4.75;;
11016;SDS011;54687;50.800;6.772;2023-02-19T12:34:34;5.88;;;5.18;;
11016;SDS011;54687;50.800;6.772;2023-02-19T12:37:18;5.60;;;4.95;;
11016;SDS011;54687;50.800;6.772;2023-02-19T12:39:58;6.65;;;5.32;;
11016;SDS011;54687;50.800;6.772;2023-02-19T12:42:39;7.18;;;4.80;;
11016;SDS011;54687;50.800;6.772;2023-02-19T12:45:16;6.78;;;5.18;;
11016;SDS011;54687;50.800;6.772;2023-02-19T12:47:53;6.65;;;5.93;;
11016;SDS011;54687;50.800;6.772;2023-02-19T12:50:25;10.38;;;5.53;;
11016;SDS011;54687;50.800;6.772;2023-02-19T12:52:54;8.10;;;5.22;;
11016;SDS011;54687;50.800;6.772;2023-02-19T12:55:28;7.68;;;5.93;;
11016;SDS011;54687;50.800;6.772;2023-02-19T12:58:00;9.55;;;5.70;;
11016;SDS011;54687;50.800;6.772;2023-02-19T13:00:30;6.72;;;5.10;;
11016;SDS011;54687;50.800;6.772;2023-02-19T13:03:02;6.75;;;4.75;;
11016;SDS011;54687;50.800;6.772;2023-02-19T13:05:37;7.72;;;4.93;;
11016;SDS011;54687;50.800;6.772;2023-02-19T13:08:11;5.38;;;4.50;;
11016;SDS011;54687;50.800;6.772;2023-02-19T13:10:46;5.97;;;4.68;;
11016;SDS011;54687;50.800;6.772;2023-02-19T13:13:17;4.85;;;4.45;;
11016;SDS011;54687;50.800;6.772;2023-02-19T13:15:49;6.78;;;5.40;;
11016;SDS011;54687;50.800;6.772;2023-02-19T13:18:19;5.25;;;4.78;;
11016;SDS011;54687;50.800;6.772;2023-02-19T13:20:51;6.55;;;5.35;;
11016;SDS011;54687;50.800;6.772;2023-02-19T13:23:21;7.18;;;6.07;;
11016;SDS011;54687;50.800;6.772;2023-02-19T13:26:14;6.85;;;6.22;;
11016;SDS011;54687;50.800;6.772;2023-02-19T13:29:03;7.40;;;6.70;;
11016;SDS011;54687;50.800;6.772;2023-02-19T13:31:44;8.30;;;6.75;;
11016;SDS011;54687;50.800;6.772;2023-02-19T13:34:25;10.88;;;7.47;;
11016;SDS011;54687;50.800;6.772;2023-02-19T13:37:05;8.10;;;5.93;;
11016;SDS011;54687;50.800;6.772;2023-02-19T13:39:33;8.25;;;6.40;;
11016;SDS011;54687;50.800;6.772;2023-02-19T13:42:01;9.15;;;6.50;;
11016;SDS011;54687;50.800;6.772;2023-02-19T13:44:29;5.85;;;5.25;;
11016;SDS011;54687;50.800;6.772;2023-02-19T13:46:58;6.80;;;6.10;;
11016;SDS011;54687;50.800;6.772;2023-02-19T13:52:33;7.68;;;6.10;;
11016;SDS011;54687;50.800;6.772;2023-02-19T14:04:53;6.97;;;5.43;;
11016;SDS011;54687;50.800;6.772;2023-02-19T14:07:32;7.32;;;5.03;;
11016;SDS011;54687;50.800;6.772;2023-02-19T14:10:01;11.23;;;5.15;;
11016;SDS011;54687;50.800;6.772;2023-02-19T14:12:30;11.52;;;8.15;;
11016;SDS011;54687;50.800;6.772;2023-02-19T14:17:58;5.57;;;4.78;;
11016;SDS011;54687;50.800;6.772;2023-02-19T14:20:42;6.72;;;5.90;;
11016;SDS011;54687;50.800;6.772;2023-02-19T14:23:14;8.18;;;5.95;;
11016;SDS011;54687;50.800;6.772;2023-02-19T14:25:50;8.35;;;6.00;;
11016;SDS011;54687;50.800;6.772;2023-02-19T14:31:12;9.18;;;6.68;;
11016;SDS011;54687;50.800;6.772;2023-02-19T14:33:43;7.32;;;6.30;;
11016;SDS011;54687;50.800;6.772;2023-02-19T14:36:19;6.70;;;6.05;;
11016;SDS011;54687;50.800;6.772;2023-02-19T14:38:54;8.35;;;7.18;;
11016;SDS011;54687;50.800;6.772;2023-02-19T14:41:24;7.60;;;6.82;;
11016;SDS011;54687;50.800;6.772;2023-02-19T14:43:53;10.80;;;6.85;;
11016;SDS011;54687;50.800;6.772;2023-02-19T14:46:23;8.52;;;6.28;;
11016;SDS011;54687;50.800;6.772;2023-02-19T14:48:56;8.35;;;6.85;;
11016;SDS011;54687;50.800;6.772;2023-02-19T14:51:30;8.95;;;7.28;;
11016;SDS011;54687;50.800;6.772;2023-02-19T14:54:01;9.25;;;7.57;;
11016;SDS011;54687;50.800;6.772;2023-02-19T14:56:36;8.57;;;6.53;;
11016;SDS011;54687;50.800;6.772;2023-02-19T14:59:19;8.98;;;6.43;;
11016;SDS011;54687;50.800;6.772;2023-02-19T15:01:54;12.07;;;7.63;;
11016;SDS011;54687;50.800;6.772;2023-02-19T15:04:23;8.63;;;6.63;;
11016;SDS011;54687;50.800;6.772;2023-02-19T15:06:53;8.65;;;6.85;;
11016;SDS011;54687;50.800;6.772;2023-02-19T15:09:22;9.25;;;7.28;;
11016;SDS011;54687;50.800;6.772;2023-02-19T15:11:55;9.88;;;7.22;;
11016;SDS011;54687;50.800;6.772;2023-02-19T15:14:22;9.20;;;6.40;;
11016;SDS011;54687;50.800;6.772;2023-02-19T15:16:54;6.70;;;6.07;;
11016;SDS011;54687;50.800;6.772;2023-02-19T15:19:23;8.13;;;6.60;;
11016;SDS011;54687;50.800;6.772;2023-02-19T15:21:50;9.23;;;7.00;;
11016;SDS011;54687;50.800;6.772;2023-02-19T15:24:20;7.60;;;6.63;;
11016;SDS011;54687;50.800;6.772;2023-02-19T15:26:48;9.20;;;7.03;;
11016;SDS011;54687;50.800;6.772;2023-02-19T15:29:19;9.85;;;6.93;;
11016;SDS011;54687;50.800;6.772;2023-02-19T15:31:47;9.27;;;6.90;;
11016;SDS011;54687;50.800;6.772;2023-02-19T15:34:16;7.07;;;5.88;;